Time;durP1;ratioP1;P1;durP2;ratioP2;P2;SDS_P1;SDS_P2;PMS_P1;PMS_P2;Temp;Humidity;BMP_temperature;BMP_pressure;BME280_temperature;BME280_humidity;BME280_pressure;Samples;Min_cycle;Max_cycle;Signal;HPM_P1;HPM_P2
2021/07/07 00:01:00;;;;;;;5.03;3.70;;;;;;;19.77;49.43;100842.41;5044176;28;20523;-66
2021/07/07 00:03:26;;;;;;;7.83;5.80;;;;;;;19.78;50.66;100845.03;5058451;28;20181;-66
2021/07/07 00:05:51;;;;;;;6.20;3.40;;;;;;;19.80;50.05;100855.56;5058018;28;20176;-66
2021/07/07 00:08:17;;;;;;;3.83;2.97;;;;;;;19.71;51.19;100837.31;5048060;28;20433;-66
2021/07/07 00:10:42;;;;;;;5.90;3.03;;;;;;;19.61;50.52;100839.31;5037999;28;20235;-66
2021/07/07 00:13:07;;;;;;;5.07;3.50;;;;;;;19.65;51.10;100839.19;5038320;28;20198;-66
2021/07/07 00:15:33;;;;;;;3.90;3.30;;;;;;;19.56;51.19;100855.28;5038003;28;20194;-66
2021/07/07 00:18:03;;;;;;;6.17;3.17;;;;;;;19.60;51.34;100858.75;5037997;28;20181;-66
2021/07/07 00:20:36;;;;;;;3.50;3.17;;;;;;;19.52;51.04;100862.47;5038527;28;20162;-66
2021/07/07 00:23:01;;;;;;;3.87;3.10;;;;;;;19.62;51.78;100871.03;5038065;28;20432;-66
2021/07/07 00:25:27;;;;;;;6.40;4.10;;;;;;;19.51;51.61;100876.59;5050444;28;20915;-66
2021/07/07 00:27:52;;;;;;;5.70;4.37;;;;;;;19.38;51.71;100875.16;5058329;28;20231;-67
2021/07/07 00:30:18;;;;;;;5.30;3.33;;;;;;;19.71;50.89;100884.91;5056040;28;20173;-67
2021/07/07 00:32:43;;;;;;;4.50;3.40;;;;;;;19.30;51.64;100877.97;5057986;28;20506;-67
2021/07/07 00:35:09;;;;;;;4.67;3.80;;;;;;;19.19;51.93;100886.16;5048003;28;20170;-66
2021/07/07 00:37:34;;;;;;;4.30;3.10;;;;;;;19.18;51.81;100899.41;5037830;28;20178;-67
2021/07/07 00:40:00;;;;;;;3.67;3.07;;;;;;;19.34;52.70;100884.06;5037947;28;20413;-67
2021/07/07 00:42:25;;;;;;;4.83;3.30;;;;;;;19.22;52.58;100892.31;5038161;28;20205;-66
2021/07/07 00:44:50;;;;;;;3.50;3.20;;;;;;;19.15;52.84;100903.00;5037779;28;20257;-66
2021/07/07 00:47:16;;;;;;;4.70;3.43;;;;;;;19.24;51.89;100911.63;5038119;28;20178;-66
2021/07/07 00:49:41;;;;;;;6.27;3.50;;;;;;;19.41;51.91;100914.72;5038470;28;20532;-67
2021/07/07 00:52:08;;;;;;;3.80;3.23;;;;;;;19.04;52.45;100917.34;5037663;28;20178;-67
2021/07/07 00:54:33;;;;;;;3.63;3.33;;;;;;;19.04;52.66;100923.53;5037980;28;20181;-66
2021/07/07 00:57:00;;;;;;;4.17;3.77;;;;;;;18.66;53.43;100925.22;5037391;28;20452;-66
2021/07/07 00:59:26;;;;;;;3.63;3.30;;;;;;;19.00;52.93;100929.78;5037668;28;20528;-67
2021/07/07 01:01:54;;;;;;;6.33;3.80;;;;;;;19.26;52.74;100929.19;5040898;28;20442;-67
2021/07/07 01:04:19;;;;;;;7.47;3.50;;;;;;;19.37;51.96;100921.00;5041209;28;20388;-67
2021/07/07 01:06:44;;;;;;;3.63;3.30;;;;;;;19.10;52.83;100933.94;5041798;28;20416;-67
2021/07/07 01:09:10;;;;;;;4.27;3.40;;;;;;;18.91;53.22;100936.13;5041719;28;20500;-66
2021/07/07 01:11:35;;;;;;;4.70;3.90;;;;;;;18.84;53.51;100935.34;5041892;28;20198;-67
2021/07/07 01:14:01;;;;;;;4.60;3.73;;;;;;;18.66;53.99;100941.06;5041407;28;20197;-67
2021/07/07 01:16:27;;;;;;;4.57;3.50;;;;;;;18.48;54.57;100947.56;5040973;28;20208;-66
2021/07/07 01:18:52;;;;;;;4.90;3.40;;;;;;;18.54;54.36;100941.28;5041936;28;20524;-67
2021/07/07 01:21:18;;;;;;;5.43;3.50;;;;;;;18.75;54.04;100930.28;5049482;28;20436;-67
2021/07/07 01:23:43;;;;;;;5.93;3.40;;;;;;;18.68;54.78;100933.94;5059450;28;20566;-67
2021/07/07 01:26:09;;;;;;;5.23;4.00;;;;;;;18.62;54.43;100939.38;5042008;28;20528;-67
2021/07/07 01:28:34;;;;;;;5.80;3.40;;;;;;;18.77;54.18;100930.25;5041165;28;20181;-66
2021/07/07 01:31:03;;;;;;;6.40;3.90;;;;;;;18.73;54.12;100934.72;5041029;28;20166;-66
2021/07/07 01:33:28;;;;;;;3.60;3.30;;;;;;;18.68;54.33;100926.03;5040682;28;20174;-66
2021/07/07 01:35:54;;;;;;;5.07;3.60;;;;;;;18.80;53.56;100933.69;5040813;28;20534;-67
2021/07/07 01:38:19;;;;;;;5.17;3.40;;;;;;;18.69;53.98;100933.91;5040975;28;20175;-67
2021/07/07 01:40:44;;;;;;;5.30;3.80;;;;;;;18.76;53.88;100923.25;5059398;28;20421;-66
2021/07/07 01:43:10;;;;;;;7.73;3.63;;;;;;;18.58;54.05;100935.94;5060055;28;20181;-67
2021/07/07 01:45:35;;;;;;;6.33;3.90;;;;;;;18.73;53.65;100939.16;5060757;28;20166;-66
2021/07/07 01:48:00;;;;;;;4.00;3.30;;;;;;;19.00;52.85;100935.94;5061379;28;20589;-66
2021/07/07 01:50:26;;;;;;;6.07;4.67;;;;;;;18.87;52.93;100936.22;5060691;28;20178;-66
2021/07/07 01:52:52;;;;;;;5.07;3.67;;;;;;;19.06;52.77;100940.19;5060527;28;20506;-67
2021/07/07 01:55:18;;;;;;;6.33;3.40;;;;;;;18.85;52.93;100934.47;5052309;28;20200;-67
2021/07/07 01:57:45;;;;;;;4.40;3.73;;;;;;;19.04;52.97;100939.38;5060763;28;20419;-66
2021/07/07 02:00:32;;;;;;;5.17;3.50;;;;;;;19.18;53.78;100934.63;5060543;28;20203;-66
2021/07/07 02:02:58;;;;;;;4.47;3.93;;;;;;;19.14;52.32;100930.31;5047771;28;20757;-66
2021/07/07 02:05:26;;;;;;;4.23;3.50;;;;;;;18.97;52.99;100932.47;5040629;28;20413;-67
2021/07/07 02:07:51;;;;;;;5.63;3.57;;;;;;;18.78;53.22;100938.16;5040577;28;20272;-67
2021/07/07 02:10:17;;;;;;;4.13;3.73;;;;;;;18.74;53.34;100925.91;5040292;28;20520;-67
2021/07/07 02:12:43;;;;;;;4.90;3.60;;;;;;;18.83;53.63;100923.09;5039790;28;20440;-67
2021/07/07 02:15:12;;;;;;;5.23;3.50;;;;;;;18.59;54.10;100934.13;5040273;28;20409;-67
2021/07/07 02:17:38;;;;;;;5.23;3.57;;;;;;;18.55;53.96;100922.78;5040311;28;20167;-67
2021/07/07 02:20:08;;;;;;;4.20;3.80;;;;;;;18.82;53.35;100920.44;5040574;28;20496;-66
2021/07/07 02:22:33;;;;;;;5.90;3.70;;;;;;;18.70;53.84;100916.31;5040077;28;20170;-66
2021/07/07 02:24:59;;;;;;;4.73;3.60;;;;;;;18.82;53.96;100923.09;5040320;28;20479;-67
2021/07/07 02:27:24;;;;;;;5.63;3.60;;;;;;;18.71;54.34;100928.59;5040609;28;20193;-67
2021/07/07 02:29:49;;;;;;;4.30;3.90;;;;;;;18.69;54.41;100928.63;5040196;28;20422;-67
2021/07/07 02:32:15;;;;;;;4.40;3.80;;;;;;;18.50;54.53;100944.00;5039939;28;20201;-67
2021/07/07 02:34:40;;;;;;;4.37;3.97;;;;;;;18.80;54.75;100930.19;5040621;28;20154;-66
2021/07/07 02:37:05;;;;;;;4.13;3.73;;;;;;;18.75;54.69;100939.97;5039821;28;20587;-67
2021/07/07 02:39:30;;;;;;;3.70;3.40;;;;;;;18.89;54.45;100929.13;5040090;28;20193;-66
2021/07/07 02:41:56;;;;;;;5.20;3.63;;;;;;;18.77;54.29;100933.75;5040437;28;20191;-67
2021/07/07 02:44:21;;;;;;;6.13;3.93;;;;;;;18.90;53.96;100941.44;5039729;28;20174;-66
2021/07/07 02:46:46;;;;;;;5.67;3.90;;;;;;;18.90;53.93;100937.03;5039883;28;20178;-66
2021/07/07 02:49:11;;;;;;;5.03;3.70;;;;;;;18.92;54.09;100939.66;5039990;28;20325;-67
2021/07/07 02:51:37;;;;;;;4.07;3.70;;;;;;;18.96;53.80;100938.69;5039530;28;20186;-67
2021/07/07 02:54:02;;;;;;;5.40;3.37;;;;;;;18.84;54.14;100931.88;5046912;28;20196;-67
2021/07/07 02:56:28;;;;;;;6.40;3.70;;;;;;;18.84;54.10;100932.72;5059246;28;20201;-67
2021/07/07 02:58:53;;;;;;;5.37;3.40;;;;;;;18.91;53.89;100930.84;5059388;28;20519;-66
2021/07/07 03:01:20;;;;;;;5.10;3.50;;;;;;;18.51;55.00;100935.19;5059543;28;20414;-66
2021/07/07 03:03:46;;;;;;;5.50;3.30;;;;;;;18.42;55.15;100942.41;5059642;28;20511;-66
2021/07/07 03:06:11;;;;;;;5.47;3.60;;;;;;;18.73;54.84;100955.84;5059287;28;20394;-65
2021/07/07 03:08:42;;;;;;;3.77;3.37;;;;;;;18.82;54.46;100952.13;5054212;28;20174;-66
2021/07/07 03:11:07;;;;;;;4.23;3.70;;;;;;;18.88;54.71;100956.44;5039743;28;20194;-66
2021/07/07 03:13:32;;;;;;;7.53;3.90;;;;;;;19.07;54.37;100957.81;5039039;28;20662;-66
2021/07/07 03:15:58;;;;;;;4.33;3.43;;;;;;;19.18;53.73;100952.28;5039075;28;20210;-66
2021/07/07 03:18:24;;;;;;;5.10;3.47;;;;;;;19.15;53.58;100955.84;5039681;28;20167;-66
2021/07/07 03:20:51;;;;;;;6.00;4.07;;;;;;;18.81;55.14;100963.63;5038323;28;20284;-66
2021/07/07 03:23:18;;;;;;;3.50;3.20;;;;;;;18.84;54.65;100953.00;5040191;28;20454;-66
2021/07/07 03:25:44;;;;;;;5.00;3.60;;;;;;;18.99;54.09;100943.91;5059351;28;20432;-66
2021/07/07 03:28:09;;;;;;;4.93;3.97;;;;;;;18.98;54.08;100958.00;5058632;28;20517;-66
2021/07/07 03:30:35;;;;;;;5.53;3.90;;;;;;;19.05;54.60;100962.28;5058905;28;20173;-66
2021/07/07 03:33:01;;;;;;;6.43;3.30;;;;;;;18.99;54.61;100960.59;5058317;28;20173;-67
2021/07/07 03:35:27;;;;;;;3.70;3.40;;;;;;;19.10;54.43;100968.28;5058735;28;20574;-67
2021/07/07 03:37:52;;;;;;;5.80;3.90;;;;;;;18.94;54.76;100965.16;5057900;28;20219;-67
2021/07/07 03:40:19;;;;;;;6.63;4.10;;;;;;;19.05;54.28;100964.91;5039298;28;20382;-67
2021/07/07 03:42:44;;;;;;;6.07;3.60;;;;;;;19.13;53.98;100957.69;5038722;28;20171;-65
2021/07/07 03:45:12;;;;;;;4.40;4.00;;;;;;;18.78;54.78;100972.50;5038677;28;20413;-66
2021/07/07 03:47:38;;;;;;;4.27;3.87;;;;;;;18.81;55.63;100972.41;5038908;28;20169;-66
2021/07/07 03:50:05;;;;;;;5.83;3.87;;;;;;;18.82;55.25;100966.25;5038857;28;20681;-66
2021/07/07 03:52:30;;;;;;;9.03;5.03;;;;;;;18.93;54.73;100965.16;5038331;28;20177;-66
2021/07/07 03:54:55;;;;;;;4.70;3.63;;;;;;;19.01;54.67;100973.78;5039149;28;20425;-66
2021/07/07 03:57:21;;;;;;;5.97;3.80;;;;;;;19.06;54.60;100969.28;5038156;28;20206;-66
2021/07/07 03:59:47;;;;;;;4.80;3.47;;;;;;;19.24;53.91;100975.94;5038207;28;20174;-66
2021/07/07 04:02:12;;;;;;;5.70;3.60;;;;;;;19.04;54.57;100973.75;5038686;28;20185;-66
2021/07/07 04:04:38;;;;;;;4.83;3.73;;;;;;;19.23;54.96;100975.94;5038265;28;20296;-67
2021/07/07 04:07:03;;;;;;;5.20;3.33;;;;;;;19.41;53.87;100986.09;5038268;28;20173;-68
2021/07/07 04:09:29;;;;;;;4.40;3.47;;;;;;;19.43;54.10;100994.88;5038737;28;20185;-65
2021/07/07 04:11:55;;;;;;;7.33;3.70;;;;;;;19.44;54.06;100993.97;5038247;28;20205;-65
2021/07/07 04:14:24;;;;;;;7.77;3.90;;;;;;;19.66;52.92;100997.00;5037359;28;20425;-66
2021/07/07 04:16:51;;;;;;;4.87;3.90;;;;;;;19.39;53.78;101010.84;5041406;28;20456;-65
2021/07/07 04:19:17;;;;;;;4.90;3.47;;;;;;;19.53;53.22;101012.25;5057834;28;20408;-65
2021/07/07 04:21:42;;;;;;;5.10;3.40;;;;;;;19.71;52.48;101010.09;5057855;28;20690;-68
2021/07/07 04:24:08;;;;;;;6.83;3.97;;;;;;;19.78;52.70;101014.34;5056079;28;20251;-65
2021/07/07 04:26:33;;;;;;;5.20;3.80;;;;;;;19.71;52.93;101010.09;5057501;28;20246;-64
2021/07/07 04:28:58;;;;;;;6.30;3.70;;;;;;;19.75;53.10;101011.75;5057722;28;20176;-65
2021/07/07 04:31:24;;;;;;;7.33;4.07;;;;;;;19.64;53.22;101024.38;5053939;28;20177;-65
2021/07/07 04:33:49;;;;;;;5.33;4.13;;;;;;;19.59;53.29;101019.22;5048096;28;20247;-65
2021/07/07 04:36:14;;;;;;;6.87;4.63;;;;;;;19.55;53.14;101027.22;5040541;28;20202;-65
2021/07/07 04:38:40;;;;;;;6.20;3.83;;;;;;;20.01;52.10;101020.84;5041856;28;20293;-64
2021/07/07 04:41:05;;;;;;;7.97;4.13;;;;;;;19.81;52.87;101029.31;5046699;28;20178;-66
2021/07/07 04:43:30;;;;;;;5.27;4.00;;;;;;;19.88;52.18;101030.00;5037646;28;20161;-65
2021/07/07 04:45:56;;;;;;;4.97;3.60;;;;;;;19.84;52.30;101032.72;5055063;28;20173;-64
2021/07/07 04:48:21;;;;;;;8.63;4.07;;;;;;;19.81;52.54;101030.16;5057616;28;20447;-65
2021/07/07 04:50:47;;;;;;;5.27;3.80;;;;;;;20.13;51.66;101035.56;5057764;28;20173;-65
2021/07/07 04:53:12;;;;;;;9.13;3.90;;;;;;;19.75;52.38;101040.84;5052130;28;20194;-65
2021/07/07 04:55:37;;;;;;;5.63;3.27;;;;;;;19.75;52.03;101040.84;5037657;28;20198;-66
2021/07/07 04:58:03;;;;;;;5.33;3.47;;;;;;;19.65;52.39;101028.75;5054650;28;20169;-65
2021/07/07 05:00:28;;;;;;;5.23;3.47;;;;;;;19.90;52.01;101028.19;5050117;28;20273;-65
2021/07/07 05:02:54;;;;;;;8.20;3.80;;;;;;;20.18;51.09;101023.09;5053678;28;20185;-65
2021/07/07 05:05:21;;;;;;;9.20;3.80;;;;;;;20.04;51.63;101031.38;5056788;28;20188;-66
2021/07/07 05:07:47;;;;;;;8.00;3.87;;;;;;;19.88;51.85;101030.00;5055611;28;20228;-65
2021/07/07 05:10:14;;;;;;;5.30;3.30;;;;;;;20.28;51.06;101026.34;5049935;28;20520;-65
2021/07/07 05:12:40;;;;;;;8.30;4.00;;;;;;;20.08;51.50;101026.84;5039045;28;20713;-65
2021/07/07 05:15:07;;;;;;;5.90;3.80;;;;;;;20.13;51.62;101024.97;5053445;28;20703;-64
2021/07/07 05:17:33;;;;;;;6.53;3.40;;;;;;;20.26;51.35;101018.44;5052415;28;20534;-64
2021/07/07 05:19:58;;;;;;;6.13;3.53;;;;;;;20.31;51.46;101026.25;5054599;28;20900;-65
2021/07/07 05:22:25;;;;;;;6.83;3.50;;;;;;;20.18;51.30;101037.16;5048353;28;20177;-65
2021/07/07 05:24:50;;;;;;;5.30;3.30;;;;;;;20.33;50.76;101038.56;5037362;28;20250;-65
2021/07/07 05:27:16;;;;;;;5.73;3.90;;;;;;;20.21;51.26;101043.31;5055398;28;20479;-65
2021/07/07 05:29:42;;;;;;;6.87;4.30;;;;;;;19.77;52.69;101049.63;5055233;28;20166;-65
2021/07/07 05:32:08;;;;;;;6.43;3.40;;;;;;;19.97;51.80;101041.25;5037096;28;20200;-65
2021/07/07 05:34:35;;;;;;;4.57;3.33;;;;;;;19.81;52.32;101045.19;5038403;28;20440;-65
2021/07/07 05:37:00;;;;;;;5.90;3.67;;;;;;;19.95;52.05;101052.78;5046113;28;20307;-66
2021/07/07 05:39:26;;;;;;;6.83;3.83;;;;;;;19.78;52.42;101055.78;5056164;28;20455;-65
2021/07/07 05:41:51;;;;;;;4.90;3.40;;;;;;;19.92;51.81;101063.44;5057313;28;20176;-67
2021/07/07 05:44:16;;;;;;;5.27;3.30;;;;;;;19.86;52.19;101053.84;5048819;28;20182;-65
2021/07/07 05:46:42;;;;;;;7.67;3.70;;;;;;;20.06;51.80;101056.00;5040150;28;20174;-65
2021/07/07 05:49:07;;;;;;;3.33;3.07;;;;;;;20.37;51.17;101055.25;5040834;28;20194;-65
2021/07/07 05:51:32;;;;;;;5.30;3.20;;;;;;;20.51;50.79;101061.06;5039768;28;20200;-65
2021/07/07 05:53:58;;;;;;;3.80;3.20;;;;;;;20.69;50.03;101072.94;5040563;28;20205;-65
2021/07/07 05:56:23;;;;;;;8.37;3.97;;;;;;;21.42;48.69;101068.22;5040692;28;20198;-65
2021/07/07 05:58:49;;;;;;;4.07;3.20;;;;;;;22.13;47.08;101065.13;5040246;28;20186;-65
2021/07/07 06:01:14;;;;;;;7.70;3.50;;;;;;;21.68;48.05;101066.59;5044550;28;20213;-66
2021/07/07 06:03:40;;;;;;;3.97;3.33;;;;;;;21.59;48.33;101069.53;5044460;28;20468;-64
2021/07/07 06:06:06;;;;;;;9.80;4.40;;;;;;;21.69;47.58;101069.19;5057839;28;20260;-65
2021/07/07 06:08:31;;;;;;;7.50;3.80;;;;;;;21.86;47.24;101073.09;5059638;28;20177;-65
2021/07/07 06:10:57;;;;;;;10.03;4.63;;;;;;;21.64;48.54;101081.72;5057800;28;20256;-65
2021/07/07 06:13:22;;;;;;;5.70;3.80;;;;;;;21.48;48.63;101077.78;5048743;28;20185;-65
2021/07/07 06:15:48;;;;;;;8.77;3.90;;;;;;;21.49;48.96;101082.19;5040133;28;20509;-65
2021/07/07 06:18:13;;;;;;;5.03;3.40;;;;;;;22.36;46.65;101088.28;5040871;28;20398;-65
2021/07/07 06:20:39;;;;;;;5.70;4.10;;;;;;;21.41;49.00;101085.06;5056915;28;20181;-64
2021/07/07 06:23:04;;;;;;;5.77;3.67;;;;;;;21.66;48.21;101092.28;5039872;28;20249;-65
2021/07/07 06:25:29;;;;;;;4.67;4.10;;;;;;;21.29;49.54;101099.53;5039741;28;20371;-66
2021/07/07 06:27:55;;;;;;;8.33;3.73;;;;;;;21.82;48.31;101096.19;5039712;28;20236;-66
2021/07/07 06:30:24;;;;;;;6.13;3.73;;;;;;;22.02;47.61;101094.69;5040966;28;20458;-65
2021/07/07 06:32:50;;;;;;;5.70;3.70;;;;;;;22.52;46.48;101099.25;5040193;28;20178;-65
2021/07/07 06:35:16;;;;;;;6.67;3.97;;;;;;;22.80;45.56;101103.59;5038822;28;20436;-65
2021/07/07 06:37:42;;;;;;;5.90;3.97;;;;;;;22.50;46.44;101101.09;5050309;28;20201;-66
2021/07/07 06:40:08;;;;;;;4.73;3.17;;;;;;;24.73;40.94;101088.03;5044432;28;20645;-66
2021/07/07 06:42:34;;;;;;;4.00;2.90;;;;;;;25.76;38.78;101093.09;5059251;28;20189;-66
2021/07/07 06:45:00;;;;;;;3.63;3.30;;;;;;;25.17;38.84;101095.84;5061539;28;20438;-65
2021/07/07 06:47:25;;;;;;;5.73;3.03;;;;;;;24.77;39.47;101100.31;5047091;28;20182;-65
2021/07/07 06:49:51;;;;;;;5.60;3.23;;;;;;;26.02;37.59;101097.22;5057848;28;20234;-66
2021/07/07 06:52:16;;;;;;;3.50;2.77;;;;;;;28.06;33.44;101086.38;5054097;28;20182;-66
2021/07/07 06:54:42;;;;;;;4.93;3.10;;;;;;;27.50;34.98;101099.34;5039554;28;20269;-66
2021/07/07 06:57:08;;;;;;;4.20;3.80;;;;;;;25.67;38.42;101096.25;5038928;28;20583;-67
2021/07/07 06:59:34;;;;;;;6.47;3.30;;;;;;;25.21;38.60;101105.44;5042699;28;20514;-67
2021/07/07 07:01:59;;;;;;;5.50;3.73;;;;;;;24.97;39.26;101099.41;5039042;28;20734;-67
2021/07/07 07:04:26;;;;;;;5.13;3.10;;;;;;;25.37;38.25;101110.09;5038967;28;20192;-66
2021/07/07 07:06:51;;;;;;;6.50;3.20;;;;;;;27.36;34.42;101101.88;5039046;28;20249;-66
2021/07/07 07:09:17;;;;;;;6.13;3.23;;;;;;;28.38;32.95;101107.69;5039203;28;20841;-66
2021/07/07 07:11:42;;;;;;;5.37;3.20;;;;;;;29.19;31.29;101114.44;5040137;28;20190;-66
2021/07/07 07:14:08;;;;;;;6.90;3.77;;;;;;;26.12;36.30;101132.34;5038826;28;20316;-67
2021/07/07 07:16:33;;;;;;;7.73;3.37;;;;;;;26.17;36.16;101135.69;5068879;28;20206;-66
2021/07/07 07:18:59;;;;;;;7.20;3.40;;;;;;;24.94;38.16;101139.56;5075285;28;20161;-66
2021/07/07 07:21:24;;;;;;;5.17;3.07;;;;;;;24.15;39.83;101145.53;5041102;28;20548;-68
2021/07/07 07:23:49;;;;;;;4.00;3.00;;;;;;;25.05;38.07;101142.63;5038533;28;20222;-66
2021/07/07 07:26:15;;;;;;;3.90;3.13;;;;;;;24.27;39.16;101146.81;5038907;28;20205;-66
2021/07/07 07:28:41;;;;;;;4.50;3.10;;;;;;;24.67;38.44;101146.97;5057908;28;20204;-67
2021/07/07 07:31:07;;;;;;;8.90;3.40;;;;;;;24.24;39.11;101148.75;5044796;28;20209;-67
2021/07/07 07:33:32;;;;;;;4.20;3.17;;;;;;;25.33;36.57;101151.16;5053372;28;20848;-67
2021/07/07 07:35:57;;;;;;;4.57;2.90;;;;;;;27.69;32.27;101146.53;5043543;28;20209;-67
2021/07/07 07:38:27;;;;;;;4.57;2.93;;;;;;;27.56;32.67;101147.22;5039543;28;20240;-67
2021/07/07 07:40:53;;;;;;;5.10;3.10;;;;;;;26.66;34.38;101148.34;5053525;28;20170;-67
2021/07/07 07:43:22;;;;;;;6.23;2.90;;;;;;;26.27;34.75;101148.59;5045677;28;20439;-68
2021/07/07 07:45:49;;;;;;;3.67;2.90;;;;;;;25.61;36.24;101157.94;5055471;28;20594;-67
2021/07/07 07:48:14;;;;;;;5.53;3.30;;;;;;;25.97;36.05;101154.47;5040652;28;20445;-67
2021/07/07 07:50:40;;;;;;;7.30;4.80;;;;;;;27.01;34.38;101156.38;5039424;28;20976;-67
2021/07/07 07:53:05;;;;;;;4.27;3.83;;;;;;;29.42;29.70;101146.19;5044515;28;20749;-67
2021/07/07 07:55:30;;;;;;;4.10;3.47;;;;;;;28.83;30.40;101144.44;5038379;28;20571;-68
2021/07/07 07:57:56;;;;;;;4.40;2.87;;;;;;;30.28;27.77;101145.13;5051789;28;20236;-68
2021/07/07 08:00:23;;;;;;;4.00;3.57;;;;;;;30.47;26.93;101145.66;5047100;28;20213;-67
2021/07/07 08:02:49;;;;;;;3.13;2.80;;;;;;;26.18;33.82;101160.56;5054843;28;20185;-67
2021/07/07 08:05:14;;;;;;;3.10;2.80;;;;;;;30.11;29.18;101147.13;5042487;28;20437;-67
2021/07/07 08:07:41;;;;;;;4.87;3.03;;;;;;;30.24;28.17;101150.72;5053421;28;20291;-68
2021/07/07 08:10:08;;;;;;;3.90;3.30;;;;;;;30.26;27.29;101152.44;5053509;28;20181;-67
2021/07/07 08:12:34;;;;;;;4.47;2.43;;;;;;;28.76;30.20;101160.03;5041495;28;20455;-67
2021/07/07 08:14:59;;;;;;;4.20;2.93;;;;;;;30.13;27.45;101158.63;5050392;28;20476;-68
2021/07/07 08:17:24;;;;;;;6.63;4.70;;;;;;;31.54;25.45;101155.22;5048246;28;20205;-67
2021/07/07 08:19:51;;;;;;;3.40;2.70;;;;;;;30.69;27.19;101152.25;5055875;28;20200;-68
2021/07/07 08:22:17;;;;;;;4.13;2.47;;;;;;;30.38;27.31;101157.84;5048704;28;20182;-67
2021/07/07 08:24:43;;;;;;;3.70;3.40;;;;;;;32.86;24.57;101151.72;5054003;28;20487;-67
2021/07/07 08:27:09;;;;;;;3.23;2.27;;;;;;;31.93;25.11;101165.06;5055910;28;20431;-67
2021/07/07 08:29:35;;;;;;;3.70;2.70;;;;;;;32.63;24.49;101158.03;5050303;28;20443;-66
2021/07/07 08:32:02;;;;;;;3.70;2.40;;;;;;;31.63;24.49;101163.66;5036417;28;20570;-66
2021/07/07 08:34:27;;;;;;;5.57;3.00;;;;;;;32.04;23.75;101165.09;5043863;28;20444;-67
2021/07/07 08:36:53;;;;;;;3.03;2.70;;;;;;;31.68;25.69;101167.72;5038735;28;20479;-66
2021/07/07 08:39:18;;;;;;;4.10;2.50;;;;;;;32.56;24.51;101166.59;5039761;28;20181;-68
2021/07/07 08:41:44;;;;;;;6.37;3.13;;;;;;;32.73;23.53;101161.75;5037449;28;20217;-67
2021/07/07 08:44:09;;;;;;;3.43;2.60;;;;;;;31.80;25.15;101167.78;5046729;28;20273;-67
2021/07/07 08:46:34;;;;;;;3.03;2.70;;;;;;;31.99;24.36;101167.28;5042094;28;20276;-67
2021/07/07 08:49:00;;;;;;;4.30;2.80;;;;;;;31.70;25.62;101167.63;5047988;28;20185;-67
2021/07/07 08:51:25;;;;;;;5.00;2.83;;;;;;;33.52;23.65;101156.41;5046339;28;20564;-67
2021/07/07 08:53:51;;;;;;;5.57;2.70;;;;;;;32.37;25.17;101160.91;5037041;28;20197;-67
2021/07/07 08:56:17;;;;;;;5.20;3.40;;;;;;;33.65;24.00;101160.81;5037468;28;20477;-66
2021/07/07 08:58:42;;;;;;;8.20;3.00;;;;;;;31.41;25.99;101173.25;5037086;28;20559;-67
2021/07/07 09:01:07;;;;;;;3.63;2.87;;;;;;;31.60;26.54;101171.97;5037412;28;20166;-66
2021/07/07 09:03:33;;;;;;;5.10;2.90;;;;;;;32.01;25.73;101162.66;5040509;28;20220;-66
2021/07/07 09:06:04;;;;;;;4.20;3.60;;;;;;;31.85;25.96;101174.59;5056021;28;20726;-66
2021/07/07 09:08:41;;;;;;;4.70;2.67;;;;;;;30.83;26.16;101170.97;5053073;28;20597;-66
2021/07/07 09:11:18;;;;;;;7.80;3.53;;;;;;;31.99;26.09;101175.38;5051837;28;20750;-65
2021/07/07 09:13:45;;;;;;;6.00;3.17;;;;;;;31.87;25.48;101175.31;5038602;28;20452;-65
2021/07/07 09:16:13;;;;;;;3.83;2.60;;;;;;;31.42;26.75;101185.75;5056385;28;20509;-65
2021/07/07 09:18:39;;;;;;;7.30;3.20;;;;;;;32.22;25.04;101171.00;5052427;28;20453;-67
2021/07/07 09:21:24;;;;;;;7.00;3.67;;;;;;;33.22;25.07;101174.09;5050770;28;20768;-68
2021/07/07 09:23:50;;;;;;;5.10;3.00;;;;;;;32.86;23.95;101186.81;5049079;28;20225;-67
2021/07/07 09:26:15;;;;;;;4.83;3.20;;;;;;;32.70;24.57;101187.13;5043000;28;20490;-68
2021/07/07 09:28:43;;;;;;;5.57;3.00;;;;;;;34.17;22.05;101189.00;5052528;28;20182;-68
2021/07/07 09:31:27;;;;;;;6.70;2.90;;;;;;;31.15;26.28;101193.94;5053679;28;20449;-67
2021/07/07 09:33:52;;;;;;;4.40;2.90;;;;;;;33.98;23.56;101186.97;5044936;28;20424;-67
2021/07/07 09:36:23;;;;;;;3.37;2.80;;;;;;;32.24;24.54;101196.91;5040961;28;20580;-67
2021/07/07 09:38:50;;;;;;;6.90;3.43;;;;;;;33.45;22.62;101190.34;5044376;28;20268;-68
2021/07/07 09:41:17;;;;;;;6.17;3.13;;;;;;;33.78;22.86;101185.91;5045427;28;20482;-68
2021/07/07 09:43:50;;;;;;;3.47;2.70;;;;;;;33.66;23.55;101203.94;5043809;28;20511;-68
2021/07/07 09:46:18;;;;;;;7.83;3.00;;;;;;;34.22;21.10;101196.72;5040807;28;20462;-67
2021/07/07 09:48:43;;;;;;;6.10;3.00;;;;;;;33.52;21.89;101202.38;5049859;28;20515;-67
2021/07/07 09:51:08;;;;;;;3.20;2.90;;;;;;;33.06;21.94;101197.91;5070239;28;20555;-68
2021/07/07 09:53:34;;;;;;;4.10;3.10;;;;;;;31.94;23.98;101200.00;5040276;28;20186;-67
2021/07/07 09:56:02;;;;;;;3.37;2.80;;;;;;;30.48;26.41;101206.53;5040715;28;20276;-66
2021/07/07 09:58:30;;;;;;;4.00;2.63;;;;;;;30.21;25.78;101204.69;5048431;28;20194;-68
2021/07/07 10:00:56;;;;;;;5.20;3.23;;;;;;;32.05;24.01;101207.28;5051656;28;20435;-68
2021/07/07 10:03:22;;;;;;;6.10;3.53;;;;;;;33.31;22.17;101204.09;5049210;28;20698;-67
2021/07/07 10:05:47;;;;;;;3.90;2.80;;;;;;;32.88;22.66;101219.97;5041423;28;20174;-67
2021/07/07 10:08:14;;;;;;;3.97;2.73;;;;;;;30.82;24.92;101204.25;5053744;28;20833;-68
2021/07/07 10:10:41;;;;;;;5.07;2.67;;;;;;;30.05;26.15;101209.34;5054342;28;20547;-67
2021/07/07 10:13:06;;;;;;;3.97;2.83;;;;;;;28.78;27.59;101222.53;5041233;28;20464;-67
2021/07/07 10:15:32;;;;;;;5.10;3.37;;;;;;;27.87;28.48;101215.16;5047095;28;20848;-66
2021/07/07 10:17:58;;;;;;;3.27;2.93;;;;;;;29.61;27.43;101199.63;5048117;28;20600;-66
2021/07/07 10:20:23;;;;;;;3.93;2.87;;;;;;;27.52;29.52;101209.91;5057854;28;20419;-66
2021/07/07 10:22:50;;;;;;;5.77;2.93;;;;;;;27.27;30.24;101213.00;5046376;28;20248;-67
2021/07/07 10:25:22;;;;;;;5.67;2.93;;;;;;;28.04;28.88;101205.34;5052813;28;20233;-69
2021/07/07 10:27:48;;;;;;;2.80;2.50;;;;;;;29.18;27.73;101204.00;5055538;28;20444;-67
2021/07/07 10:30:14;;;;;;;7.73;2.90;;;;;;;28.99;27.50;101198.91;5052076;28;20535;-66
2021/07/07 10:33:10;;;;;;;3.40;2.67;;;;;;;30.65;25.57;101208.09;5047495;28;20468;-67
2021/07/07 10:35:35;;;;;;;4.50;2.77;;;;;;;31.16;25.33;101193.88;5042602;28;20177;-66
2021/07/07 10:38:04;;;;;;;5.23;3.00;;;;;;;31.91;24.28;101190.28;5059425;28;20435;-66
2021/07/07 10:40:30;;;;;;;3.40;2.50;;;;;;;32.69;23.23;101189.94;5043891;28;20181;-67
2021/07/07 10:42:56;;;;;;;3.50;2.40;;;;;;;27.68;28.97;101199.22;5039705;28;20455;-66
2021/07/07 10:45:40;;;;;;;3.60;2.80;;;;;;;27.84;30.12;101214.44;5045365;28;20445;-66
2021/07/07 10:48:20;;;;;;;3.83;2.77;;;;;;;28.76;28.58;101200.28;5042996;28;20513;-67
2021/07/07 10:50:46;;;;;;;3.43;2.50;;;;;;;28.23;28.52;101205.13;5058398;28;20439;-66
2021/07/07 10:53:41;;;;;;;6.67;3.37;;;;;;;28.54;27.33;101198.84;5047644;28;20787;-65
2021/07/07 10:56:07;;;;;;;3.93;2.93;;;;;;;30.48;25.88;101182.31;5044229;28;20514;-65
2021/07/07 10:58:35;;;;;;;5.87;2.80;;;;;;;30.62;25.95;101184.09;5043689;28;20551;-66
2021/07/07 11:01:00;;;;;;;3.33;2.67;;;;;;;30.09;26.77;101185.81;5054338;28;20539;-65
2021/07/07 11:03:37;;;;;;;3.40;2.30;;;;;;;30.23;25.97;101183.94;5050326;28;20836;-66
2021/07/07 11:06:23;;;;;;;5.77;2.80;;;;;;;30.95;24.92;101174.66;5046681;28;20502;-66
2021/07/07 11:08:49;;;;;;;3.90;3.03;;;;;;;31.03;24.44;101169.63;5040434;28;20698;-65
2021/07/07 11:11:25;;;;;;;4.33;2.70;;;;;;;31.04;24.52;101181.25;5039998;28;20492;-67
2021/07/07 11:13:51;;;;;;;5.30;2.80;;;;;;;31.00;25.65;101177.00;5050631;28;20711;-66
2021/07/07 11:16:24;;;;;;;3.70;2.97;;;;;;;31.51;24.99;101168.91;5038723;28;20464;-69
2021/07/07 11:18:50;;;;;;;4.90;3.00;;;;;;;30.77;25.35;101175.91;5050694;28;20509;-65
2021/07/07 11:21:16;;;;;;;4.30;2.80;;;;;;;30.22;25.98;101174.16;5054655;28;20530;-65